EDDW

Bremen Airport

Bremen, Germany
METAR EDDW 172120Z 27001KT 1300 0600SW R27/0700U BCFG SCT025 M02/M02 Q1026
Observed Flight Rules
Feb-17 @ 21:20 UTC (14 minutes ago) Instrument Flight Rules
Wind Visibility Clouds Conditions
270° at 1 knots 1,304 meters
  • Scattered at 2,500' AGL
  • Patches of
  • Fog
Temperatures Readings
Current -2°C / 28°F
Dewpoint -2°C / 28°F
Humidity 100%
Altimeter 30.3" Hg
Pressure 1026 hPa
Elevation 5
METAR EDDW 172120Z 27001KT 1300 0600SW R27/0700U BCFG SCT025 M02/M02 Q1026
Observed Flight Rules
Feb-17 @ 21:20 UTC
(14 minutes ago)
LIFR
Wind Visibility
270° at 1 knots 1,304 meters
Clouds
  • Scattered at 2,500' AGL
Conditions
  • Patches of
  • Fog
Temperature Dewpoint
-2°C / 28°F -2°C / 28°F
Humidity Altimeter Pressure
100% 30.3" Hg 1026 hPa